createdAt,value
2023-02-11T00:03:43.621Z,7.73
2023-02-11T00:08:45.937Z,7.20
2023-02-11T00:13:51.276Z,11.20
2023-02-11T00:18:54.364Z,9.60
2023-02-11T00:23:58.276Z,9.03
2023-02-11T00:29:04.445Z,14.43
2023-02-11T00:34:06.900Z,7.83
2023-02-11T00:39:11.406Z,10.77
2023-02-11T00:44:13.581Z,11.27
2023-02-11T00:49:16.090Z,6.57
2023-02-11T00:54:18.313Z,9.50
2023-02-11T00:59:20.471Z,10.70
2023-02-11T01:04:25.628Z,8.13
2023-02-11T01:09:27.789Z,7.80
2023-02-11T01:14:30.246Z,9.03
2023-02-11T01:19:32.437Z,8.60
2023-02-11T01:24:34.596Z,9.97
2023-02-11T01:29:36.821Z,6.20
2023-02-11T01:34:38.982Z,8.03
2023-02-11T01:39:41.191Z,7.83
2023-02-11T01:44:43.545Z,9.80
2023-02-11T01:49:52.894Z,8.57
2023-02-11T01:55:17.375Z,10.13
2023-02-11T02:00:24.477Z,8.93
2023-02-11T02:05:56.194Z,8.63
2023-02-11T02:11:01.101Z,5.33
2023-02-11T02:16:08.588Z,5.87
2023-02-11T02:21:36.270Z,8.20
2023-02-11T02:26:53.053Z,3.83
2023-02-11T02:32:35.103Z,11.30
2023-02-11T02:37:56.954Z,4.07
2023-02-11T02:42:59.954Z,7.13
2023-02-11T02:48:02.216Z,6.53
2023-02-11T02:53:42.747Z,3.60
2023-02-11T02:59:06.948Z,4.50
2023-02-11T03:04:42.737Z,8.67
2023-02-11T03:09:58.883Z,6.77
2023-02-11T03:15:02.247Z,6.43
2023-02-11T03:20:06.762Z,9.03
2023-02-11T03:25:10.074Z,8.93
2023-02-11T03:30:18.485Z,4.83
2023-02-11T03:35:33.475Z,5.17
2023-02-11T03:40:40.276Z,6.30
2023-02-11T03:45:42.516Z,7.63
2023-02-11T03:50:46.172Z,4.60
2023-02-11T03:55:50.274Z,5.57
2023-02-11T04:00:52.728Z,4.77
2023-02-11T04:05:55.004Z,3.63
2023-02-11T04:10:57.219Z,4.53
2023-02-11T04:15:59.467Z,3.00
2023-02-11T04:21:01.726Z,4.43
2023-02-11T04:26:04.242Z,3.50
2023-02-11T04:31:06.552Z,7.07
2023-02-11T04:36:08.961Z,3.60
2023-02-11T04:41:11.160Z,6.63
2023-02-11T04:46:13.554Z,8.63
2023-02-11T04:51:15.822Z,4.77
2023-02-11T04:56:18.022Z,9.30
2023-02-11T05:01:20.335Z,5.87
2023-02-11T05:06:22.698Z,5.30
2023-02-11T05:11:25.890Z,4.53
2023-02-11T05:16:28.447Z,4.47
2023-02-11T05:21:30.711Z,3.23
2023-02-11T05:26:33.144Z,4.30
2023-02-11T05:31:35.212Z,6.07
2023-02-11T05:36:37.336Z,6.03
2023-02-11T05:41:39.577Z,8.23
2023-02-11T05:46:41.720Z,9.47
2023-02-11T05:51:44.041Z,3.17
2023-02-11T05:56:46.200Z,4.43
2023-02-11T06:01:48.466Z,6.90
2023-02-11T06:06:50.543Z,4.77
2023-02-11T06:11:52.780Z,6.00
2023-02-11T06:16:55.042Z,3.07
2023-02-11T06:21:57.470Z,4.43
2023-02-11T06:26:59.680Z,5.83
2023-02-11T06:32:02.002Z,5.07
2023-02-11T06:37:04.622Z,4.67
2023-02-11T06:42:08.020Z,5.83
2023-02-11T06:47:10.751Z,4.43
2023-02-11T06:52:12.982Z,6.27
2023-02-11T06:57:15.179Z,6.67
2023-02-11T07:02:20.386Z,3.43
2023-02-11T07:07:23.239Z,3.47
2023-02-11T07:12:25.306Z,3.70
2023-02-11T07:17:30.481Z,7.90
2023-02-11T07:22:34.408Z,7.67
2023-02-11T07:27:36.677Z,5.20
2023-02-11T07:32:38.772Z,4.53
2023-02-11T07:37:41.814Z,5.57
2023-02-11T07:42:43.951Z,5.57
2023-02-11T07:47:46.152Z,7.73
2023-02-11T07:52:48.254Z,4.50
2023-02-11T07:57:51.052Z,6.73
2023-02-11T08:02:53.164Z,8.20
2023-02-11T08:07:58.350Z,7.27
2023-02-11T08:13:02.796Z,5.90
2023-02-11T08:18:05.043Z,7.10
2023-02-11T08:23:08.394Z,15.70
2023-02-11T08:28:10.798Z,8.43
2023-02-11T08:33:12.973Z,8.17
2023-02-11T08:38:15.145Z,9.17
2023-02-11T08:43:17.377Z,6.87
2023-02-11T08:48:19.530Z,7.67
2023-02-11T08:53:21.695Z,7.43
2023-02-11T08:58:23.884Z,8.20
2023-02-11T09:03:26.036Z,5.23
2023-02-11T09:08:28.210Z,8.73
2023-02-11T09:13:31.449Z,8.80
2023-02-11T09:18:33.875Z,7.63
2023-02-11T09:23:36.629Z,9.00
2023-02-11T09:28:39.439Z,6.23
2023-02-11T09:33:48.008Z,6.00
2023-02-11T09:38:50.759Z,5.17
2023-02-11T09:43:56.249Z,7.83
2023-02-11T09:48:58.443Z,5.70
2023-02-11T09:54:09.840Z,5.70
2023-02-11T09:59:17.646Z,9.53
2023-02-11T10:04:50.290Z,5.03
2023-02-11T10:10:14.094Z,5.93
2023-02-11T10:15:24.898Z,5.87
2023-02-11T10:26:13.580Z,6.77
2023-02-11T10:31:40.573Z,7.50
2023-02-11T10:36:44.203Z,9.00
2023-02-11T10:42:08.245Z,10.50
2023-02-11T10:47:19.770Z,7.03
2023-02-11T10:52:27.161Z,9.10
2023-02-11T10:57:44.894Z,7.80
2023-02-11T11:02:54.757Z,8.20
2023-02-11T11:08:00.119Z,7.20
2023-02-11T11:13:02.423Z,10.27
2023-02-11T11:18:22.798Z,8.63
2023-02-11T11:23:25.928Z,6.83
2023-02-11T11:28:30.998Z,9.73
2023-02-11T11:33:34.916Z,10.90
2023-02-11T11:38:43.682Z,8.30
2023-02-11T11:44:18.632Z,8.10
2023-02-11T11:49:33.380Z,10.53
2023-02-11T11:54:36.290Z,8.90
2023-02-11T11:59:38.500Z,6.10
2023-02-11T12:05:03.078Z,10.63
2023-02-11T12:10:15.169Z,8.20
2023-02-11T12:15:26.337Z,9.17
2023-02-11T12:21:06.022Z,10.57
2023-02-11T12:26:15.738Z,7.37
2023-02-11T12:31:38.870Z,8.73
2023-02-11T12:37:08.104Z,9.13
2023-02-11T12:42:35.880Z,9.00
2023-02-11T12:47:47.024Z,13.13
2023-02-11T12:53:18.103Z,15.13
2023-02-11T12:58:29.690Z,13.27
2023-02-11T13:03:41.629Z,9.83
2023-02-11T13:08:47.721Z,12.83
2023-02-11T13:13:56.582Z,11.87
2023-02-11T13:19:14.087Z,10.40
2023-02-11T13:24:38.034Z,11.33
2023-02-11T13:30:06.644Z,12.67
2023-02-11T13:35:28.716Z,15.13
2023-02-11T13:40:36.563Z,14.57
2023-02-11T13:45:49.913Z,19.47
2023-02-11T13:50:58.784Z,11.37
2023-02-11T13:56:13.104Z,13.10
2023-02-11T14:02:12.335Z,12.87
2023-02-11T14:07:52.786Z,19.07
2023-02-11T14:13:25.833Z,13.13
2023-02-11T14:18:49.300Z,14.30
2023-02-11T14:24:05.055Z,13.33
2023-02-11T14:29:19.766Z,14.90
2023-02-11T14:34:51.930Z,12.63
2023-02-11T14:39:54.214Z,11.40
2023-02-11T14:44:59.606Z,12.53
2023-02-11T14:50:01.869Z,15.80
2023-02-11T14:55:33.625Z,12.63
2023-02-11T15:00:35.992Z,17.27
2023-02-11T15:05:38.313Z,8.87
2023-02-11T15:10:44.451Z,11.33
2023-02-11T15:15:47.305Z,15.00
2023-02-11T15:20:50.430Z,14.30
2023-02-11T15:26:05.938Z,16.30
2023-02-11T15:31:16.762Z,13.53
2023-02-11T15:36:21.810Z,13.07
2023-02-11T15:41:37.623Z,14.77
2023-02-11T15:46:40.545Z,13.70
2023-02-11T15:51:45.799Z,20.07
2023-02-11T15:56:55.638Z,17.83
2023-02-11T16:02:05.294Z,9.23
2023-02-11T16:07:19.438Z,10.07
2023-02-11T16:12:24.254Z,13.53
2023-02-11T16:17:28.322Z,13.47
2023-02-11T16:22:35.641Z,16.47
2023-02-11T16:27:40.612Z,22.57
2023-02-11T16:32:43.287Z,16.57
2023-02-11T16:37:45.509Z,11.20
2023-02-11T16:42:48.049Z,12.57
2023-02-11T16:47:50.278Z,18.50
2023-02-11T16:52:53.280Z,10.70
2023-02-11T16:57:55.529Z,11.17
2023-02-11T17:02:57.932Z,17.50
2023-02-11T17:08:02.607Z,12.20
2023-02-11T17:13:12.818Z,15.90
2023-02-11T17:18:17.970Z,14.37
2023-02-11T17:23:20.270Z,11.93
2023-02-11T17:28:22.518Z,13.63
2023-02-11T17:33:25.129Z,35.07
2023-02-11T17:38:27.312Z,24.43
2023-02-11T17:43:29.541Z,17.73
2023-02-11T17:48:32.028Z,11.80
2023-02-11T17:53:34.305Z,16.23
2023-02-11T17:58:36.475Z,11.30
2023-02-11T18:03:38.619Z,13.43
2023-02-11T18:08:42.193Z,9.30
2023-02-11T18:13:45.839Z,10.50
2023-02-11T18:18:48.344Z,14.63
2023-02-11T18:23:53.147Z,12.77
2023-02-11T18:28:58.247Z,7.63
2023-02-11T18:34:00.393Z,9.90
2023-02-11T18:39:05.207Z,14.87
2023-02-11T18:44:07.638Z,9.93
2023-02-11T18:49:13.391Z,13.50
2023-02-11T18:54:15.776Z,12.10
2023-02-11T18:59:17.985Z,9.37
2023-02-11T19:04:20.389Z,11.83
2023-02-11T19:09:22.929Z,9.10
2023-02-11T19:14:34.457Z,11.17
2023-02-11T19:19:41.109Z,10.80
2023-02-11T19:24:43.479Z,10.67
2023-02-11T19:29:45.762Z,14.60
2023-02-11T19:34:48.144Z,11.57
2023-02-11T19:39:50.591Z,13.90
2023-02-11T19:44:53.365Z,11.33
2023-02-11T19:49:55.703Z,12.37
2023-02-11T19:54:57.903Z,8.73
2023-02-11T20:00:01.445Z,9.33
2023-02-11T20:05:05.932Z,10.87
2023-02-11T20:10:11.274Z,14.77
2023-02-11T20:15:14.506Z,14.07
2023-02-11T20:20:18.946Z,11.97
2023-02-11T20:25:21.255Z,6.40
2023-02-11T20:30:23.403Z,8.17
2023-02-11T20:35:25.674Z,11.40
2023-02-11T20:40:27.917Z,9.47
2023-02-11T20:45:30.134Z,6.07
2023-02-11T20:50:34.504Z,6.67
2023-02-11T20:55:40.141Z,9.97
2023-02-11T21:00:42.460Z,9.60
2023-02-11T21:05:44.733Z,9.20
2023-02-11T21:10:48.479Z,7.17
2023-02-11T21:15:57.163Z,8.80
2023-02-11T21:21:00.103Z,9.75
2023-02-11T21:26:02.304Z,10.00
2023-02-11T21:31:05.486Z,12.03
2023-02-11T21:36:08.252Z,7.33
2023-02-11T21:41:10.646Z,7.47
2023-02-11T21:46:15.035Z,10.53
2023-02-11T21:51:19.910Z,10.53
2023-02-11T21:56:22.261Z,8.60
2023-02-11T22:01:32.708Z,6.57
2023-02-11T22:06:35.426Z,10.27
2023-02-11T22:11:37.956Z,7.17
2023-02-11T22:16:40.310Z,7.53
2023-02-11T22:21:43.663Z,7.97
2023-02-11T22:26:45.856Z,11.00
2023-02-11T22:31:48.028Z,8.63
2023-02-11T22:36:50.114Z,8.27
2023-02-11T22:41:52.270Z,7.63
2023-02-11T22:46:54.511Z,6.47
2023-02-11T22:51:56.627Z,8.33
2023-02-11T22:56:58.699Z,7.37
2023-02-11T23:02:01.057Z,6.40
2023-02-11T23:07:27.481Z,7.50
2023-02-11T23:12:29.657Z,5.37
2023-02-11T23:17:31.758Z,4.77
2023-02-11T23:22:34.186Z,6.37
2023-02-11T23:27:36.419Z,3.77
2023-02-11T23:32:39.402Z,3.03
2023-02-11T23:37:41.507Z,3.83
2023-02-11T23:42:43.998Z,4.17
2023-02-11T23:47:46.174Z,2.90
2023-02-11T23:52:48.324Z,3.90
2023-02-11T23:57:50.428Z,2.70
